Flight Track Log - Related Links

Times and Time Zones

All times are in EDT time to prevent confusion due to time zone crossing. See the SKW7363 flight status page for this flight to view local times or setup timezone preferences in your user account.

Time Position Orientation Groundspeed Altitude Reporting Facility
EDT Latitude Longitude Course Direction KTS MPH feet Rate Location/Type
Wed 10:19:22 PM 40.8158 -112.0044 313° West 156 180 4,800  Level Salt Lake Center
Wed 10:20:23 PM 40.8569 -112.0389 328° Northwest 173 199 6,100 1,266 Climbing Salt Lake Center
Wed 10:21:11 PM 40.8939 -112.0747 324° Northwest 200 230 7,100 1,279 Climbing Salt Lake Center
Wed 10:21:24 PM 40.9097 -112.0889 326° Northwest 219 252 7,400 1,233 Climbing Salt Lake Center
Wed 10:22:00 PM 40.9565 -112.1475 315° West  Level FlightAware Approximate
Wed 10:22:24 PM 40.9567 -112.1411 320° Northwest 226 260 8,600  Level Salt Lake Center
Wed 10:23:00 PM 41.0121 -112.2244 313° West  Level FlightAware Approximate
Wed 10:23:14 PM 40.9883 -112.1872 312° West 231 266 9,300  Level Salt Lake Center
Wed 10:24:00 PM 41.0668 -112.3026 313° West  Level FlightAware Approximate
Wed 10:24:15 PM 41.0308 -112.2569 309° West 238 274 10,200  Level Salt Lake Center
Wed 10:25:17 PM 41.0753 -112.3269 310° West 244 281 11,100 677 Climbing Salt Lake Center
Wed 10:26:19 PM 41.1256 -112.3925 316° Northwest 251 289 11,600 585 Climbing Salt Lake Center
Wed 10:27:20 PM 41.1847 -112.4786 312° West 261 300 12,300 585 Climbing Salt Lake Center
Wed 10:28:22 PM 41.2336 -112.5525 311° West 263 303 12,800 532 Climbing Salt Lake Center
Wed 10:29:24 PM 41.2831 -112.6278 311° West 268 308 13,400 585 Climbing Salt Lake Center
Wed 10:30:25 PM 41.3333 -112.7025 312° West 269 310 14,000 537 Climbing Salt Lake Center
Wed 10:31:27 PM 41.3831 -112.7778 311° West 270 311 14,500 581 Climbing Salt Lake Center
Wed 10:32:29 PM 41.4322 -112.8533 311° West 271 312 15,200 585 Climbing Salt Lake Center
Wed 10:33:30 PM 41.4800 -112.9267 311° West 265 305 15,700 585 Climbing Salt Lake Center
Wed 10:34:32 PM 41.5289 -113.0019 311° West 266 306 16,400 677 Climbing Salt Lake Center
Wed 10:35:34 PM 41.5872 -113.0919 311° West 266 306 17,100 585 Climbing Salt Lake Center
Wed 10:36:35 PM 41.6378 -113.1681 312° West 269 310 17,600 439 Climbing Salt Lake Center
Wed 10:37:37 PM 41.6872 -113.2439 311° West 269 310 18,000 194 Climbing Salt Lake Center
Wed 10:38:39 PM 41.7378 -113.3211 311° West 272 313 18,000  Level Salt Lake Center
Wed 10:39:40 PM 41.7892 -113.3989 312° West 275 316 18,000 -146 Level Salt Lake Center
Wed 10:40:42 PM 41.8394 -113.4794 310° West 278 320 17,700 -435 Descending Salt Lake Center
Wed 10:41:44 PM 41.8931 -113.5622 311° West 291 335 17,100 -829 Descending Salt Lake Center
Wed 10:42:45 PM 41.9608 -113.6669 311° West 306 352 16,000 -1,122 Descending Salt Lake Center
Wed 10:43:47 PM 42.0178 -113.7567 311° West 309 356 14,800 -1,065 Descending Salt Lake Center
Wed 10:44:49 PM 42.0747 -113.8444 311° West 315 362 13,800 -878 Descending Salt Lake Center
Wed 10:45:50 PM 42.1283 -113.9286 311° West 303 349 13,000 -488 Descending Salt Lake Center
Wed 10:46:52 PM 42.1781 -114.0081 310° West 287 330 12,800 -532 Descending Salt Lake Center
Wed 10:47:54 PM 42.2325 -114.0981 309° West 283 326 11,900 -1,368 Descending Salt Lake Center
Wed 10:49:08 PM 42.3111 -114.1886 320° Northwest 307 353 9,700 -1,765 Descending Salt Lake Center
Wed 10:50:10 PM 42.3772 -114.2539 324° Northwest 283 326 7,900 -1,742 Descending Salt Lake Center

Login

Don't have an account? Register now (free) for customized features, flight alerts, and more!